ADDS METAR Data INFO
IDs: Format: Raw Decoded Include TAF

Data at: 0857 UTC 19 Jun 2018

KSTP 190853Z AUTO 05005KT 10SM -RA FEW010 OVC035 19/17 A2998 RMK AO2 LTG DSNT S RAB47 SLP146 P0000 60000 T01890172 56006
KSTP 190753Z AUTO 09003KT 10SM OVC036 19/17 A2998 RMK AO2 LTG DSNT S SLP146 T01940167
KSTP 190653Z AUTO 05007G17KT 10SM OVC046 19/16 A2999 RMK AO2 SLP150 T01940156
KSTP 190553Z AUTO 06012G20KT 10SM OVC050 20/15 A3000 RMK AO2 RAB24E39 SLP153 P0000 60023 T02000150 10244 20200 402610194 56006
KSTP 190453Z AUTO 06009KT 10SM OVC050 20/16 A3000 RMK AO2 RAE17 SLP155 P0001 T02000156
KSTP 190401Z AUTO 06012KT 4SM -RA SCT043 OVC070 20/16 A3000 RMK AO2 P0001 T02000161
KSTP 190353Z AUTO 06011KT 2 1/2SM +RA BKN043 BKN050 OVC070 21/16 A3001 RMK AO2 RAB28 SLP157 P0022 T02060156
KSTP 190338Z AUTO VRB04KT 2SM RA SCT041 BKN050 OVC075 21/17 A3002 RMK AO2 RAB28 P0011 T02060172
KSTP 190253Z AUTO 08005KT 10SM OVC070 23/16 A3001 RMK AO2 SLP159 T02330156 53018
KSTP 190153Z 06004KT 10SM OVC060 24/17 A2999 RMK AO2 SLP150 T02390167
KSTP 190053Z 04007KT 10SM OVC060 24/17 A2997 RMK AO2 SLP144 T02390167
KSTP 182353Z 04008KT 10SM OVC060 24/17 A2996 RMK AO2 SLP140 60000 T02440172 10261 20217 58012
KSTP 182253Z 05008KT 10SM BKN060 24/17 A2998 RMK AO2 SLP147 T02440172
KSTP 182153Z 06008KT 10SM FEW035 BKN065 BKN095 25/18 A2998 RMK AO2 SLP146 T02500178
KSTP 182053Z 06007KT 10SM OVC070 24/17 A3000 RMK AO2 SLP152 60000 T02440167 56007
KSTP 181953Z AUTO 06011KT 10SM SCT025 OVC070 23/17 A3000 RMK AO2 SLP155 T02330172
KSTP 181853Z 05007KT 10SM SCT021 OVC065 23/18 A3000 RMK AO2 RAE1758 SLP155 P0000 T02280183
KSTP 181840Z 04008KT 10SM FEW017 SCT025 OVC065 23/19 A3001 RMK AO2 RAE1758 P0000 T02280189
KSTP 181753Z 01007KT 7SM -RA SCT017 BKN023 OVC060 22/19 A3002 RMK AO2 RAE00B17 SLP160 P0004 60005 T02170189 10217 20194 51012
KSTP 181653Z 04008KT 10SM -RA BKN015 BKN031 OVC055 21/18 A3001 RMK AO2 RAB41 SLP157 P0000 T02110183
KSTP 181646Z 03008KT 10SM -RA BKN015 OVC020 21/18 A3001 RMK AO2 RAB41 P0000 T02110183
KSTP 181553Z 01008KT 10SM OVC013 21/18 A2999 RMK AO2 RAE1456 SLP151 P0000 T02060183
KSTP 181500Z 03007KT 5SM BR OVC011 20/18 A2998 RMK AO2 RAE1456 P0000 T02000183
KSTP 181453Z 02007KT 2SM -RA BR OVC011 20/18 A2998 RMK AO2 RAB10 SLP148 P0001 60001 T02000183 53013
KSTP 181428Z 01005KT 2SM -RA BR OVC010 19/18 A2998 RMK AO2 RAB10 P0000 T01940183
KSTP 181353Z 36004KT 10SM OVC010 20/18 A2997 RMK AO2 SLP144 T02000178
KSTP 181253Z 36005KT 10SM OVC011 20/18 A2995 RMK AO2 SLP135 T02000183
KSTP 181250Z 36007KT 10SM OVC011 20/18 A2995 RMK AO2
KSTP 181153Z 02009KT 10SM OVC008 20/19 A2992 RMK AO2 RAE28 SLP127 P0000 60043 70066 T02000189 10222 20200 53013
KSTP 181053Z 35010KT 10SM -RA OVC007 21/19 A2992 RMK AO2 SLP124 P0001 T02060194
KSTP 181005Z AUTO 35009KT 10SM -RA BKN009 BKN050 OVC080 22/21 A2990 RMK AO2 P0001 T02170206
KSTP 181000Z AUTO 35008KT 6SM -RA BR SCT010 BKN045 OVC080 22/21 A2989 RMK AO2 P0001 T02170206
KSTP 180953Z AUTO 36006KT 6SM -RA BR BKN010 BKN050 OVC080 22/21 A2989 RMK AO2 SLP115 P0006 T02170206
KSTP 180919Z AUTO 33005KT 10SM -RA BKN009 OVC014 22/21 A2990 RMK AO2 P0001 T02220211
KSTP 180853Z AUTO 35006KT 10SM -RA BKN012 BKN017 OVC024 22/21 A2989 RMK AO2 SLP113 P0008 60036 T02220211 53010
KSTP 180822Z AUTO 35007KT 8SM -RA SCT013 OVC023 22/21 A2987 RMK AO2 P0002 T02220211
KSTP 180804Z AUTO 35006KT 9SM -RA BKN013 BKN030 OVC090 22/21 A2986 RMK AO2 P0001 T02220211
KSTP 180753Z AUTO 34005KT 4SM -RA BR SCT013 BKN055 OVC085 22/21 A2986 RMK AO2 SLP106 P0015 T02220211
KSTP 180653Z AUTO 35006KT 4SM RA BR SCT036 BKN049 OVC100 22/21 A2985 RMK AO2 SLP102 P0013 T02220211
KSTP 180637Z AUTO 33005KT 3SM VCTS RA BR BKN036 BKN060 OVC075 22/21 A2987 RMK AO2 LTG DSNT S P0009 T02220211
KSTP 180553Z AUTO 33004KT 10SM -RA SCT075 OVC085 22/21 A2987 RMK AO2 LTG DSNT E-S RAB13 SLP106 P0001 60023 T02220211 10272 20222 403220222 53007
KSTP 180453Z AUTO 00000KT 10SM OVC060 23/21 A2986 RMK AO2 RAE31 SLP102 P0003 T02280211
KSTP 180353Z AUTO 33004KT 10SM -RA BKN060 OVC080 23/22 A2986 RMK AO2 RAB50 SLP103 P0000 T02330217
KSTP 180253Z AUTO 32004KT 10SM BKN080 24/21 A2985 RMK AO2 LTG DSNT E SLP099 60019 T02390206 51021
KSTP 180153Z 34007KT 10SM SCT019 BKN031 24/21 A2982 RMK AO2 LTG DSNT E AND S RAB08E53 TSB28E47 SLP092 P0019 T02440211
KSTP 180150Z 34008KT 10SM -RA SCT019 BKN031 24/21 A2982 RMK AO2 LTG DSNT E AND S RAB08 TSB28E47 P0019
KSTP 180142Z 35006KT 10SM TSRA BKN021 OVC031 24/22 A2982 RMK AO2 LTG DSNT E RAB08 TSB28 P0019 T02390217
KSTP 180137Z 36012KT 3/4SM +TSRA SCT025 OVC033 24/21 A2982 RMK AO2 LTG DSNT E RAB08 TSB28 PRESFR P0017 T02390211 RVRNO
KSTP 180134Z 34008KT 1 1/4SM +TSRA OVC033 24/21 A2983 RMK AO2 LTG DSNT E RAB08 TSB28 P0009 T02390211
KSTP 180132Z 32008KT 2SM TSRA OVC033 24/21 A2984 RMK AO2 LTG DSNT E RAB08 TSB28 P0005 T02440211
KSTP 180053Z 00000KT 10SM VCTS SCT038 BKN055 OVC080 27/21 A2984 RMK AO2 LTG DSNT E-SW PRESRR SLP097 T02670211
KSTP 180040Z 33003KT 10SM VCTS BKN055 BKN070 BKN085 27/22 A2982 RMK AO2 LTG DSNT E-SW PRESRR T02670217
KSTP 172353Z 34006KT 10SM FEW085 27/22 A2978 RMK AO2 WSHFT 2241 LTG DSNT E-SW SLP078 T02720222 10322 20267 53007
KSTP 172257Z 33019G26KT 10SM SCT040 BKN049 BKN060 28/22 A2978 RMK AO2 WSHFT 2241 LTG DSNT N AND NE T02780222
KSTP 172253Z 32019G26KT 10SM VCTS SCT040 BKN049 BKN060 29/22 A2977 RMK AO2 PK WND 32026/2252 LTG DSNT N AND NE SLP075 T02940222
KSTP 172240Z 24012G19KT 10SM VCTS FEW043 FEW055 32/23 A2976 RMK AO2 LTG DSNT NW-NE T03170228
KSTP 172153Z 24008KT 10SM SCT045 BKN060 BKN070 31/23 A2975 RMK AO2 LTG DSNT W-N SLP065 T03110233